Time;durP1;ratioP1;P1;durP2;ratioP2;P2;SDS_P1;SDS_P2;PMS_P1;PMS_P2;Temp;Humidity;BMP_temperature;BMP_pressure;BME280_temperature;BME280_humidity;BME280_pressure;Samples;Min_cycle;Max_cycle;Signal;HPM_P1;HPM_P2
2022/12/22 03:28:07;;;;;;;0.10;0.10;;;;;;;8.34;100.00;100151.59;4977745;28;20037;-71
2022/12/22 03:30:32;;;;;;;0.10;0.10;;;;;;;8.42;100.00;100169.72;4984774;28;20022;-71
2022/12/22 03:32:57;;;;;;;0.10;0.10;;;;;;;8.29;100.00;100144.91;4979915;28;22542;-73
2022/12/22 03:35:23;;;;;;;0.10;0.10;;;;;;;8.32;100.00;100140.19;4985074;28;20030;-71
2022/12/22 03:37:48;;;;;;;0.10;0.10;;;;;;;8.51;100.00;100163.66;4979164;28;20798;-71
2022/12/22 03:40:13;;;;;;;0.10;0.10;;;;;;;8.55;100.00;100158.94;4977535;28;20088;-72
2022/12/22 03:48:07;;;;;;;0.10;0.10;;;;;;;8.57;100.00;100148.97;4973883;28;20065;-72
2022/12/22 03:50:32;;;;;;;0.10;0.10;;;;;;;8.54;100.00;100149.22;4971212;28;20465;-71
2022/12/22 03:52:57;;;;;;;0.10;0.10;;;;;;;8.33;100.00;100112.47;4980344;28;20034;-72
2022/12/22 03:55:23;;;;;;;0.10;0.10;;;;;;;8.43;100.00;100135.78;4981951;28;20112;-71
2022/12/22 03:57:48;;;;;;;0.10;0.10;;;;;;;8.34;100.00;100130.19;4978345;28;20117;-71
2022/12/22 04:00:14;;;;;;;0.10;0.10;;;;;;;8.44;100.00;100132.16;4982140;28;20073;-72
2022/12/22 04:02:39;;;;;;;0.10;0.10;;;;;;;8.39;100.00;100127.19;4981640;28;20117;-72
2022/12/22 04:05:05;;;;;;;0.10;0.10;;;;;;;8.41;100.00;100127.91;4983875;28;20346;-71
2022/12/22 04:07:30;;;;;;;0.10;0.10;;;;;;;8.37;100.00;100115.75;4976392;28;20034;-71
2022/12/22 04:12:54;;;;;;;0.10;0.10;;;;;;;8.36;100.00;100090.81;4986359;28;20049;-71
2022/12/22 04:15:27;;;;;;;0.10;0.10;;;;;;;8.41;100.00;100102.00;4968561;28;20068;-71
2022/12/22 04:17:52;;;;;;;0.10;0.10;;;;;;;8.44;100.00;100108.94;4982757;28;20030;-71
2022/12/22 04:20:20;;;;;;;0.40;0.40;;;;;;;8.38;100.00;100109.44;4986377;28;20041;-71
2022/12/22 04:22:46;;;;;;;0.60;0.60;;;;;;;8.43;100.00;100106.38;4987062;28;20039;-71
2022/12/22 04:25:11;;;;;;;0.10;0.10;;;;;;;8.43;100.00;100109.03;4984848;28;20030;-72
2022/12/22 04:27:36;;;;;;;0.10;0.10;;;;;;;8.31;100.00;100086.81;4965666;28;20053;-71
2022/12/22 04:30:03;;;;;;;0.10;0.10;;;;;;;8.36;100.00;100084.63;4983659;28;20054;-71
2022/12/22 04:32:29;;;;;;;0.10;0.10;;;;;;;8.38;100.00;100096.06;4983411;28;20027;-71
2022/12/22 04:34:54;;;;;;;0.10;0.10;;;;;;;8.41;100.00;100095.81;4966895;28;20461;-71
2022/12/22 04:37:19;;;;;;;0.10;0.10;;;;;;;8.30;100.00;100083.31;4979169;28;20061;-71
2022/12/22 04:39:44;;;;;;;0.30;0.30;;;;;;;8.43;100.00;100106.38;4981806;28;20044;-71
2022/12/22 04:42:10;;;;;;;0.30;0.30;;;;;;;8.39;100.00;100109.28;4998645;28;20026;-72
2022/12/22 04:44:35;;;;;;;0.30;0.30;;;;;;;8.29;100.00;100097.66;4984179;28;20385;-71
2022/12/22 04:47:00;;;;;;;0.30;0.30;;;;;;;8.28;100.00;100100.44;4977053;28;20488;-71
2022/12/22 04:49:26;;;;;;;1.20;1.20;;;;;;;8.44;100.00;100125.00;4968416;28;20038;-71
2022/12/22 04:51:51;;;;;;;0.70;0.70;;;;;;;8.43;100.00;100130.44;4984254;28;20113;-71
2022/12/22 04:54:16;;;;;;;1.20;1.20;;;;;;;8.31;100.00;100119.78;4979753;28;20042;-71
2022/12/22 04:56:42;;;;;;;0.57;0.57;;;;;;;8.20;100.00;100122.44;4984038;28;20034;-71
2022/12/22 04:59:07;;;;;;;0.73;0.73;;;;;;;8.20;100.00;100125.13;5006724;23;20092;-72
2022/12/22 05:01:32;;;;;;;0.60;0.60;;;;;;;8.29;100.00;100137.75;5013215;28;20695;-71
2022/12/22 05:03:58;;;;;;;0.43;0.43;;;;;;;8.25;100.00;100123.75;5016780;28;20176;-71
2022/12/22 05:06:23;;;;;;;0.28;0.28;;;;;;;8.21;100.00;100110.78;5001713;28;20113;-71
2022/12/22 05:08:48;;;;;;;0.25;0.25;;;;;;;8.28;100.00;100117.34;5023899;28;20052;-71
2022/12/22 05:11:14;;;;;;;0.17;0.17;;;;;;;8.23;100.00;100114.19;5003640;28;20438;-71
2022/12/22 05:13:39;;;;;;;0.20;0.20;;;;;;;8.38;100.00;100134.34;4987434;28;20053;-71
2022/12/22 05:16:06;;;;;;;0.38;0.38;;;;;;;8.35;100.00;100150.63;5001617;28;20088;-71
2022/12/22 05:18:33;;;;;;;0.40;0.40;;;;;;;8.18;100.00;100121.72;5003442;28;20022;-71
2022/12/22 05:21:01;;;;;;;0.50;0.50;;;;;;;8.38;100.00;100149.56;5014154;28;20065;-71
2022/12/22 05:23:26;;;;;;;0.40;0.40;;;;;;;8.33;100.00;100144.56;5001577;28;20805;-71
2022/12/22 05:25:52;;;;;;;0.30;0.30;;;;;;;8.35;100.00;100142.59;4999227;28;20096;-71
2022/12/22 05:28:17;;;;;;;0.40;0.40;;;;;;;8.35;100.00;100147.13;5002947;28;20104;-71
2022/12/22 05:30:42;;;;;;;0.30;0.30;;;;;;;8.35;100.00;100141.75;5015265;28;20029;-71
2022/12/22 05:33:07;;;;;;;0.30;0.30;;;;;;;8.34;100.00;100146.25;5014313;28;20116;-71
2022/12/22 05:35:33;;;;;;;0.30;0.30;;;;;;;8.29;100.00;100136.91;4987427;28;20026;-71
2022/12/22 05:37:58;;;;;;;0.28;0.28;;;;;;;8.37;100.00;100147.84;5009417;28;20022;-71
2022/12/22 05:40:23;;;;;;;0.30;0.30;;;;;;;8.32;100.00;100137.53;5003512;28;20381;-71
2022/12/22 05:42:49;;;;;;;0.32;0.32;;;;;;;8.29;100.00;100128.88;5008317;28;20034;-71
2022/12/22 05:45:17;;;;;;;0.45;0.45;;;;;;;8.38;100.00;100145.03;5008339;28;20587;-71
2022/12/22 05:47:44;;;;;;;0.30;0.30;;;;;;;8.17;100.00;100115.53;5003138;28;20060;-71
2022/12/22 05:50:11;;;;;;;0.40;0.40;;;;;;;8.34;100.00;100143.56;5001950;28;20112;-71
2022/12/22 05:52:37;;;;;;;0.50;0.50;;;;;;;8.28;100.00;100140.53;5006387;28;20022;-71
2022/12/22 05:55:03;;;;;;;0.35;0.35;;;;;;;8.38;100.00;100158.41;5005961;28;20092;-71
2022/12/22 05:57:28;;;;;;;0.32;0.32;;;;;;;8.22;100.00;100124.00;5004731;28;20399;-71
2022/12/22 05:59:53;;;;;;;0.10;0.10;;;;;;;8.30;100.00;100141.28;5005908;28;20527;-71
2022/12/22 06:02:19;;;;;;;0.28;0.28;;;;;;;8.40;100.00;100156.47;5003176;28;20488;-71
2022/12/22 06:04:44;;;;;;;0.20;0.20;;;;;;;8.48;100.00;100165.72;5006075;28;20032;-70
2022/12/22 06:07:09;;;;;;;0.30;0.30;;;;;;;8.46;100.00;100179.22;5008903;28;20034;-70
2022/12/22 06:09:35;;;;;;;0.30;0.30;;;;;;;8.31;100.00;100164.38;5011787;28;20033;-71
2022/12/22 06:12:01;;;;;;;0.40;0.40;;;;;;;8.42;100.00;100185.78;5005017;28;20468;-71
2022/12/22 06:14:26;;;;;;;0.30;0.30;;;;;;;8.46;100.00;100187.25;5004918;28;20560;-71
2022/12/22 06:16:52;;;;;;;0.30;0.30;;;;;;;8.33;100.00;100184.69;5009866;28;20038;-71
2022/12/22 06:19:17;;;;;;;0.25;0.25;;;;;;;8.22;100.00;100187.34;5007160;28;20104;-71
2022/12/22 06:21:42;;;;;;;0.20;0.20;;;;;;;8.21;100.00;100199.84;5002681;28;20058;-71
2022/12/22 06:24:08;;;;;;;0.20;0.20;;;;;;;8.20;100.00;100210.69;5004536;28;20076;-71
2022/12/22 06:26:33;;;;;;;0.10;0.10;;;;;;;8.17;100.00;100205.56;5009688;28;20026;-71
2022/12/22 06:28:58;;;;;;;0.10;0.10;;;;;;;8.11;100.00;100214.94;5002593;28;20109;-70
2022/12/22 06:31:25;;;;;;;0.10;0.10;;;;;;;8.03;100.00;100220.00;5000963;28;20054;-71
2022/12/22 06:33:50;;;;;;;0.10;0.10;;;;;;;8.11;100.00;100225.63;4999886;28;20407;-71
2022/12/22 06:36:15;;;;;;;0.10;0.10;;;;;;;8.14;100.00;100227.19;4999179;28;20034;-71
2022/12/22 06:38:41;;;;;;;0.10;0.10;;;;;;;8.13;100.00;100236.19;4997477;28;20026;-70
2022/12/22 06:41:06;;;;;;;0.10;0.10;;;;;;;8.10;100.00;100222.09;5000277;28;20563;-71
2022/12/22 06:43:32;;;;;;;0.10;0.10;;;;;;;8.20;100.00;100222.25;4993633;28;20118;-71
2022/12/22 06:45:57;;;;;;;0.10;0.10;;;;;;;8.09;100.00;100208.84;4997275;28;20109;-70
2022/12/22 06:48:22;;;;;;;0.10;0.10;;;;;;;8.20;100.00;100234.75;5000572;28;20033;-70
2022/12/22 06:50:48;;;;;;;0.10;0.10;;;;;;;8.19;100.00;100238.41;5000485;28;20107;-71
2022/12/22 06:53:14;;;;;;;0.10;0.10;;;;;;;8.11;100.00;100228.31;4997105;28;20108;-71
2022/12/22 06:55:39;;;;;;;0.10;0.10;;;;;;;8.23;100.00;100237.19;4998414;28;20112;-71
2022/12/22 06:58:04;;;;;;;0.10;0.10;;;;;;;8.19;100.00;100241.06;4999191;28;20014;-71
2022/12/22 07:00:30;;;;;;;0.10;0.10;;;;;;;8.34;100.00;100247.06;4995909;28;20417;-71
2022/12/22 07:02:55;;;;;;;0.10;0.10;;;;;;;8.46;100.00;100253.25;4998052;28;20076;-71
2022/12/22 07:05:22;;;;;;;0.10;0.10;;;;;;;8.28;100.00;100253.75;4999700;28;20145;-71
2022/12/22 07:07:48;;;;;;;0.10;0.10;;;;;;;8.29;100.00;100257.25;4995546;28;20428;-71
2022/12/22 07:10:13;;;;;;;0.15;0.15;;;;;;;8.24;100.00;100258.47;4985122;28;20428;-71
2022/12/22 07:12:38;;;;;;;0.10;0.10;;;;;;;8.14;100.00;100260.16;4995873;28;20029;-71
2022/12/22 07:15:04;;;;;;;0.20;0.20;;;;;;;8.11;100.00;100260.38;4999742;28;20037;-71
2022/12/22 07:17:30;;;;;;;0.10;0.10;;;;;;;8.13;100.00;100282.53;4996691;28;20080;-71
2022/12/22 07:19:55;;;;;;;0.17;0.17;;;;;;;8.14;100.00;100270.84;4997605;28;20515;-71
2022/12/22 07:22:20;;;;;;;0.10;0.10;;;;;;;8.16;100.00;100279.63;4994160;28;20437;-71
2022/12/22 07:24:46;;;;;;;0.10;0.10;;;;;;;8.03;100.00;100278.81;4994908;28;20101;-71
2022/12/22 07:27:11;;;;;;;0.20;0.20;;;;;;;8.15;100.00;100290.41;4995352;28;20037;-71
2022/12/22 07:29:37;;;;;;;0.20;0.20;;;;;;;8.05;100.00;100280.44;4989802;28;20018;-71
2022/12/22 07:32:03;;;;;;;0.13;0.13;;;;;;;7.98;100.00;100273.84;4996198;28;20037;-71
2022/12/22 07:34:28;;;;;;;0.10;0.10;;;;;;;8.16;100.00;100294.78;4996356;28;20543;-70
2022/12/22 07:36:53;;;;;;;0.17;0.17;;;;;;;8.09;100.00;100284.56;4992822;28;20033;-71
2022/12/22 07:39:19;;;;;;;0.20;0.20;;;;;;;8.09;100.00;100287.22;4997514;28;20465;-71
2022/12/22 07:44:28;;;;;;;0.20;0.20;;;;;;;8.08;100.00;100298.88;4995927;28;20092;-70
2022/12/22 07:46:53;;;;;;;0.20;0.20;;;;;;;7.89;100.00;100290.56;5012655;28;20026;-71
2022/12/22 07:52:03;;;;;;;0.20;0.20;;;;;;;7.93;100.00;100313.44;5005230;28;20068;-71
2022/12/22 07:54:28;;;;;;;0.20;0.20;;;;;;;7.81;100.00;100312.53;5002418;28;20345;-71
2022/12/22 07:56:54;;;;;;;0.20;0.20;;;;;;;7.84;100.00;100319.47;5004020;28;20080;-71
2022/12/22 07:59:19;;;;;;;0.20;0.20;;;;;;;8.04;100.00;100342.91;5000200;28;20040;-70
2022/12/22 08:01:45;;;;;;;0.20;0.20;;;;;;;8.03;100.00;100349.22;5005792;28;20049;-71
2022/12/22 08:04:12;;;;;;;0.20;0.20;;;;;;;8.06;100.00;100356.13;5002679;28;20069;-71
2022/12/22 08:06:37;;;;;;;0.30;0.30;;;;;;;8.06;100.00;100353.47;5001074;28;20026;-71
2022/12/22 08:09:04;;;;;;;0.40;0.40;;;;;;;8.04;100.00;100366.97;4983038;28;20072;-71
2022/12/22 08:11:29;;;;;;;0.30;0.30;;;;;;;7.80;100.00;100337.56;4999431;28;20034;-77
2022/12/22 08:13:55;;;;;;;0.30;0.30;;;;;;;7.92;100.00;100374.06;4989696;28;20034;-72
2022/12/22 08:16:21;;;;;;;0.30;0.30;;;;;;;7.94;100.00;100379.28;4992627;28;20539;-72
2022/12/22 08:18:46;;;;;;;0.30;0.30;;;;;;;7.98;100.00;100391.47;4999801;28;20035;-71
2022/12/22 08:21:12;;;;;;;0.30;0.30;;;;;;;7.89;100.00;100397.47;5005118;28;20033;-71
2022/12/22 08:23:37;;;;;;;0.30;0.30;;;;;;;7.83;100.00;100404.16;5008715;28;20076;-71
2022/12/22 08:26:15;;;;;;;0.28;0.28;;;;;;;7.90;100.00;100410.75;4998759;28;20132;-72
2022/12/22 08:28:49;;;;;;;0.30;0.30;;;;;;;7.86;100.00;100395.03;4999802;28;20436;-71
2022/12/22 08:31:15;;;;;;;0.30;0.30;;;;;;;7.79;100.00;100391.97;4986222;28;20029;-71
2022/12/22 08:33:41;;;;;;;0.20;0.20;;;;;;;7.94;100.00;100411.38;4993133;28;20026;-71
2022/12/22 08:36:08;;;;;;;0.30;0.30;;;;;;;7.92;100.00;100387.44;5003151;28;20037;-71
2022/12/22 08:38:33;;;;;;;0.20;0.20;;;;;;;8.13;100.00;100416.22;5004216;28;20555;-71
2022/12/22 08:40:58;;;;;;;0.22;0.22;;;;;;;8.08;100.00;100421.88;5002637;28;20422;-72
2022/12/22 08:43:24;;;;;;;0.20;0.20;;;;;;;8.07;100.00;100419.34;5002590;28;20061;-72
2022/12/22 08:45:50;;;;;;;0.20;0.20;;;;;;;8.01;100.00;100417.13;4997587;28;20091;-71
2022/12/22 08:48:15;;;;;;;0.30;0.30;;;;;;;8.16;100.00;100433.84;4998091;28;20045;-72
2022/12/22 08:50:40;;;;;;;0.20;0.20;;;;;;;8.04;100.00;100425.78;4996664;28;20200;-71
2022/12/22 08:53:07;;;;;;;0.20;0.20;;;;;;;8.25;100.00;100443.88;5002139;28;20034;-71
2022/12/22 08:55:32;;;;;;;0.10;0.10;;;;;;;8.28;100.00;100456.16;5007959;28;20148;-72
2022/12/22 08:57:58;;;;;;;0.20;0.20;;;;;;;8.14;100.00;100462.50;4999129;28;20434;-71
2022/12/22 09:00:24;;;;;;;0.20;0.20;;;;;;;8.19;100.00;100471.94;4994427;28;20048;-71
2022/12/22 09:02:49;;;;;;;0.20;0.20;;;;;;;8.00;100.00;100444.81;4993467;28;20396;-71
2022/12/22 09:05:14;;;;;;;0.20;0.20;;;;;;;8.19;100.00;100473.72;4999824;28;20042;-71
2022/12/22 09:07:40;;;;;;;0.10;0.10;;;;;;;8.20;100.00;100478.13;4998776;28;20033;-71
2022/12/22 09:10:07;;;;;;;0.20;0.20;;;;;;;8.08;100.00;100479.88;4999854;28;20065;-71
2022/12/22 09:12:33;;;;;;;0.10;0.10;;;;;;;8.17;100.00;100502.41;4999246;28;20084;-71
2022/12/22 09:14:59;;;;;;;0.20;0.20;;;;;;;7.94;100.00;100488.91;4987648;28;20340;-72
2022/12/22 09:17:24;;;;;;;0.20;0.20;;;;;;;8.05;100.00;100504.16;5002717;28;20021;-72
2022/12/22 09:19:49;;;;;;;0.20;0.20;;;;;;;8.00;100.00;100487.59;5004812;28;20417;-72
2022/12/22 09:22:15;;;;;;;0.20;0.20;;;;;;;7.97;100.00;100518.09;5005403;28;20496;-72
2022/12/22 09:24:40;;;;;;;0.20;0.20;;;;;;;7.74;100.00;100523.25;5003380;28;20121;-71
2022/12/22 09:27:07;;;;;;;0.10;0.10;;;;;;;7.69;100.00;100514.72;4982319;28;20036;-72
2022/12/22 09:29:33;;;;;;;0.20;0.20;;;;;;;7.69;100.00;100519.19;4999524;28;20484;-72
2022/12/22 09:31:59;;;;;;;0.10;0.10;;;;;;;7.60;100.00;100520.69;5004811;28;20079;-72
2022/12/22 09:34:24;;;;;;;0.20;0.20;;;;;;;7.53;100.00;100504.25;4994693;28;20061;-71
2022/12/22 09:36:49;;;;;;;0.20;0.20;;;;;;;7.83;100.00;100526.22;5003420;28;20080;-72
2022/12/22 09:39:15;;;;;;;0.20;0.20;;;;;;;8.21;100.00;100536.81;5004922;28;20160;-72
2022/12/22 09:41:54;;;;;;;0.20;0.20;;;;;;;8.62;100.00;100526.75;4995710;28;20030;-71
2022/12/22 09:44:27;;;;;;;0.20;0.20;;;;;;;8.69;100.00;100543.22;5010609;28;20041;-71
2022/12/22 09:46:59;;;;;;;0.30;0.30;;;;;;;8.82;100.00;100533.28;5009227;28;20022;-72
2022/12/22 09:49:24;;;;;;;0.28;0.28;;;;;;;9.27;100.00;100539.78;5003695;28;20036;-72
2022/12/22 09:52:00;;;;;;;0.20;0.20;;;;;;;9.14;100.00;100530.00;5004776;28;20025;-71
2022/12/22 09:54:26;;;;;;;0.20;0.20;;;;;;;9.39;100.00;100520.06;4991131;28;20061;-71
2022/12/22 09:56:51;;;;;;;0.20;0.20;;;;;;;9.66;100.00;100520.69;4994261;28;20085;-71
2022/12/22 09:59:18;;;;;;;0.20;0.20;;;;;;;10.18;100.00;100537.97;5002842;28;20120;-71
2022/12/22 10:02:19;;;;;;;0.10;0.10;;;;;;;9.70;100.00;100547.13;5000955;28;20044;-72
2022/12/22 10:05:13;;;;;;;0.20;0.20;;;;;;;9.27;100.00;100553.16;5001621;28;20547;-72
2022/12/22 10:07:41;;;;;;;0.20;0.20;;;;;;;9.27;100.00;100542.47;4994068;28;20036;-72
2022/12/22 10:10:23;;;;;;;0.20;0.20;;;;;;;9.47;100.00;100548.91;4999448;28;20032;-72
2022/12/22 10:12:50;;;;;;;0.10;0.10;;;;;;;9.08;100.00;100537.66;4995959;28;20022;-71
2022/12/22 10:15:15;;;;;;;0.20;0.20;;;;;;;9.33;100.00;100565.22;4994678;28;20049;-72
2022/12/22 10:17:41;;;;;;;0.20;0.20;;;;;;;9.18;100.00;100556.53;4996150;28;20491;-72
2022/12/22 10:20:19;;;;;;;0.30;0.30;;;;;;;9.47;100.00;100556.97;5001886;28;20018;-71
2022/12/22 10:22:49;;;;;;;0.20;0.20;;;;;;;9.66;100.00;100555.53;5013708;28;20736;-71
2022/12/22 10:25:37;;;;;;;0.20;0.20;;;;;;;9.37;100.00;100561.34;4993097;28;20120;-72
2022/12/22 10:28:06;;;;;;;0.20;0.20;;;;;;;9.67;100.00;100576.84;4981218;28;21703;-72
2022/12/22 10:30:34;;;;;;;0.10;0.10;;;;;;;9.37;100.00;100562.19;4999451;28;20041;-72
2022/12/22 10:33:10;;;;;;;0.10;0.10;;;;;;;9.37;100.00;100550.63;4994668;28;20029;-71
2022/12/22 10:35:43;;;;;;;0.10;0.10;;;;;;;9.43;100.00;100584.97;4992718;28;20026;-71
2022/12/22 10:38:20;;;;;;;0.10;0.10;;;;;;;9.16;100.00;100583.44;5012998;28;20022;-71
2022/12/22 10:40:48;;;;;;;0.10;0.10;;;;;;;8.67;100.00;100586.16;4996667;28;20030;-72
2022/12/22 10:43:22;;;;;;;0.10;0.10;;;;;;;8.30;100.00;100579.94;4995855;28;20026;-73
2022/12/22 10:45:48;;;;;;;;;;;;;;;8.47;100.00;100579.56;4995340;28;20036;-73
2022/12/22 10:48:14;;;;;;;0.10;0.10;;;;;;;8.34;100.00;100552.00;4997777;28;19921;-72
2022/12/22 10:50:45;;;;;;;0.20;0.20;;;;;;;8.32;100.00;100578.00;4996314;28;20138;-72
2022/12/22 10:53:10;;;;;;;0.20;0.20;;;;;;;8.35;100.00;100562.56;4996946;28;20491;-71
2022/12/22 10:55:37;;;;;;;0.10;0.10;;;;;;;8.54;100.00;100585.34;4997255;28;20030;-71
2022/12/22 10:58:09;;;;;;;0.20;0.20;;;;;;;8.65;100.00;100587.25;4998943;28;20022;-71
2022/12/22 11:00:35;;;;;;;0.20;0.20;;;;;;;8.62;100.00;100590.13;4999983;28;20029;-72
2022/12/22 11:03:10;;;;;;;0.15;0.15;;;;;;;8.85;100.00;100588.44;4994448;28;20033;-71
2022/12/22 11:05:35;;;;;;;0.20;0.20;;;;;;;8.75;100.00;100544.59;4994575;28;20523;-72
2022/12/22 11:08:14;;;;;;;0.30;0.30;;;;;;;9.22;100.00;100568.75;4997970;28;20105;-71
2022/12/22 11:10:53;;;;;;;0.20;0.20;;;;;;;9.52;100.00;100559.31;5010986;28;20034;-71
2022/12/22 11:13:40;;;;;;;0.20;0.20;;;;;;;10.36;100.00;100600.00;5013432;28;20040;-72
2022/12/22 11:16:20;;;;;;;0.30;0.30;;;;;;;10.94;100.00;100587.34;4994820;28;20037;-71
2022/12/22 11:19:03;;;;;;;0.30;0.30;;;;;;;11.90;100.00;100587.25;4995270;28;20487;-72
2022/12/22 11:21:34;;;;;;;0.30;0.30;;;;;;;13.08;100.00;100601.03;4994083;28;20034;-71
2022/12/22 11:24:21;;;;;;;0.20;0.20;;;;;;;13.40;100.00;100604.41;4999270;28;20088;-71
2022/12/22 11:26:59;;;;;;;0.20;0.20;;;;;;;13.61;100.00;100613.19;4990558;28;20123;-71
2022/12/22 11:29:31;;;;;;;0.13;0.13;;;;;;;13.50;100.00;100610.69;5000654;28;20096;-71
2022/12/22 11:32:10;;;;;;;0.20;0.20;;;;;;;13.33;100.00;100614.94;4999965;28;20061;-72
2022/12/22 11:34:44;;;;;;;0.10;0.10;;;;;;;12.65;100.00;100623.78;5008797;28;20129;-72
2022/12/22 11:37:30;;;;;;;0.13;0.13;;;;;;;12.94;100.00;100623.00;5002806;28;20038;-71
2022/12/22 11:40:03;;;;;;;0.10;0.10;;;;;;;13.53;97.94;100594.19;4996537;28;20032;-71
2022/12/22 11:42:40;;;;;;;0.00;0.00;;;;;;;12.41;98.87;100607.03;4999510;28;20927;-71
2022/12/22 11:45:40;;;;;;;0.10;0.10;;;;;;;11.42;100.00;100623.59;4994787;28;20034;-71
2022/12/22 11:48:26;;;;;;;0.10;0.10;;;;;;;11.12;100.00;100621.69;4992819;28;20429;-71
2022/12/22 11:50:55;;;;;;;0.10;0.10;;;;;;;10.90;100.00;100615.44;4994530;28;20022;-71
2022/12/22 11:53:51;;;;;;;0.10;0.10;;;;;;;10.91;100.00;100623.34;4995842;28;20427;-71
2022/12/22 11:56:25;;;;;;;0.10;0.10;;;;;;;10.82;100.00;100634.88;4995840;28;20041;-72
2022/12/22 11:58:53;;;;;;;0.10;0.10;;;;;;;11.33;100.00;100627.94;4977191;28;20040;-72
2022/12/22 12:01:33;;;;;;;0.08;0.08;;;;;;;11.68;100.00;100633.97;5008027;28;20036;-72
2022/12/22 12:04:36;;;;;;;0.10;0.10;;;;;;;12.59;100.00;100633.28;4981115;28;20153;-72
2022/12/22 12:07:16;;;;;;;0.10;0.10;;;;;;;12.24;100.00;100624.69;5003787;28;20080;-71
2022/12/22 12:10:12;;;;;;;0.10;0.10;;;;;;;11.76;100.00;100625.28;4996163;28;20034;-73
2022/12/22 12:12:58;;;;;;;0.10;0.10;;;;;;;10.88;100.00;100622.75;4996006;28;20229;-72
2022/12/22 12:16:17;;;;;;;0.10;0.10;;;;;;;11.00;100.00;100619.03;4995877;28;20037;-72
2022/12/22 12:19:10;;;;;;;0.10;0.10;;;;;;;10.25;100.00;100623.31;4975941;28;20735;-72
2022/12/22 12:21:52;;;;;;;0.20;0.20;;;;;;;10.53;100.00;100623.81;4974651;28;20140;-71
2022/12/22 12:24:28;;;;;;;0.20;0.20;;;;;;;11.11;100.00;100612.78;4994978;28;20048;-73
2022/12/22 12:27:02;;;;;;;0.10;0.10;;;;;;;11.08;100.00;100610.34;4994911;28;20423;-71
2022/12/22 12:29:35;;;;;;;0.10;0.10;;;;;;;11.05;100.00;100589.97;4995303;28;20115;-72
2022/12/22 12:32:10;;;;;;;0.10;0.10;;;;;;;10.19;100.00;100592.47;4996376;28;20042;-72
2022/12/22 12:34:40;;;;;;;0.10;0.10;;;;;;;9.74;100.00;100609.38;4998040;28;20026;-71
2022/12/22 12:37:33;;;;;;;0.10;0.10;;;;;;;9.79;100.00;100617.09;4996520;28;20406;-72
2022/12/22 12:40:37;;;;;;;0.10;0.10;;;;;;;9.59;100.00;100606.94;4999284;28;20741;-72
2022/12/22 12:43:02;;;;;;;0.10;0.10;;;;;;;9.13;100.00;100562.25;4993183;28;20036;-71
2022/12/22 12:45:32;;;;;;;0.00;0.00;;;;;;;9.05;100.00;100596.78;4992147;28;20029;-72
2022/12/22 12:48:35;;;;;;;0.00;0.00;;;;;;;8.78;100.00;100590.69;4998969;28;20072;-71
2022/12/22 12:51:01;;;;;;;0.10;0.10;;;;;;;8.57;100.00;100579.78;5010845;28;20026;-72
2022/12/22 12:53:27;;;;;;;0.10;0.10;;;;;;;8.70;100.00;100599.31;4999034;28;20040;-72
2022/12/22 12:55:54;;;;;;;0.10;0.10;;;;;;;8.82;100.00;100589.50;5001573;28;20495;-72
2022/12/22 12:58:36;;;;;;;0.10;0.10;;;;;;;9.06;100.00;100585.13;5002679;28;20137;-71
2022/12/22 13:01:08;;;;;;;0.10;0.10;;;;;;;9.08;100.00;100575.16;4997098;28;20033;-70
2022/12/22 13:03:39;;;;;;;0.10;0.10;;;;;;;8.89;100.00;100587.22;4998495;28;20034;-71
2022/12/22 13:06:07;;;;;;;0.10;0.10;;;;;;;8.64;100.00;100550.75;5002620;28;20107;-70
2022/12/22 13:09:04;;;;;;;0.10;0.10;;;;;;;8.98;100.00;100589.22;4999612;28;20121;-69
2022/12/22 13:11:35;;;;;;;0.10;0.10;;;;;;;8.96;100.00;100568.91;4999282;28;20109;-69
2022/12/22 13:14:00;;;;;;;0.10;0.10;;;;;;;8.82;100.00;100583.31;5001358;28;20034;-72
2022/12/22 13:16:29;;;;;;;0.10;0.10;;;;;;;8.63;100.00;100603.41;5003857;28;20029;-73
2022/12/22 13:18:58;;;;;;;0.10;0.10;;;;;;;8.57;100.00;100597.66;4989362;28;20110;-73
2022/12/22 13:21:27;;;;;;;0.10;0.10;;;;;;;8.54;100.00;100602.25;4982920;28;20841;-73
2022/12/22 13:23:55;;;;;;;0.10;0.10;;;;;;;8.58;100.00;100597.56;4997144;28;20317;-71
2022/12/22 13:26:23;;;;;;;0.10;0.10;;;;;;;8.60;100.00;100603.66;4997392;28;20535;-71
2022/12/22 13:29:00;;;;;;;0.10;0.10;;;;;;;8.79;100.00;100599.59;5016249;28;20045;-71
2022/12/22 13:31:30;;;;;;;0.10;0.10;;;;;;;8.62;100.00;100603.53;4999258;28;20160;-71
2022/12/22 13:34:06;;;;;;;0.10;0.10;;;;;;;8.61;100.00;100599.13;4996576;28;20029;-71
2022/12/22 13:36:32;;;;;;;0.10;0.10;;;;;;;8.67;100.00;100596.00;4995085;28;20022;-71
2022/12/22 13:39:03;;;;;;;0.10;0.10;;;;;;;9.05;100.00;100610.19;4998021;28;20064;-71
2022/12/22 13:41:30;;;;;;;0.10;0.10;;;;;;;9.23;100.00;100589.19;4998372;28;20030;-71
2022/12/22 13:44:00;;;;;;;0.00;0.00;;;;;;;9.13;100.00;100589.03;5001867;28;20026;-71
2022/12/22 13:46:25;;;;;;;0.10;0.10;;;;;;;8.83;100.00;100580.50;4996038;28;20057;-72
2022/12/22 13:48:53;;;;;;;0.10;0.10;;;;;;;8.89;100.00;100597.94;4995129;28;20029;-72
2022/12/22 13:51:33;;;;;;;0.10;0.10;;;;;;;8.70;100.00;100593.13;4998318;28;20033;-71
2022/12/22 13:54:07;;;;;;;0.10;0.10;;;;;;;8.82;100.00;100600.22;5001452;28;20033;-72
2022/12/22 13:56:36;;;;;;;0.10;0.10;;;;;;;8.81;100.00;100595.00;4996277;28;20030;-72
2022/12/22 13:59:02;;;;;;;0.10;0.10;;;;;;;8.57;100.00;100560.19;4993993;28;20034;-72
2022/12/22 14:01:28;;;;;;;0.10;0.10;;;;;;;8.80;100.00;100587.94;4997475;28;20080;-72
2022/12/22 14:04:02;;;;;;;0.10;0.10;;;;;;;8.68;100.00;100577.16;4980650;28;20022;-72
2022/12/22 14:06:35;;;;;;;0.10;0.10;;;;;;;8.78;100.00;100571.97;4995682;28;20030;-72
2022/12/22 14:09:13;;;;;;;0.10;0.10;;;;;;;8.89;100.00;100581.03;4997876;28;20333;-72
2022/12/22 14:11:39;;;;;;;0.10;0.10;;;;;;;8.87;100.00;100557.06;4992565;28;20026;-71
2022/12/22 14:14:09;;;;;;;0.10;0.10;;;;;;;8.87;100.00;100545.47;4996525;28;20032;-71
2022/12/22 14:16:34;;;;;;;0.10;0.10;;;;;;;8.89;100.00;100541.72;4980670;28;20140;-71
2022/12/22 14:19:00;;;;;;;0.10;0.10;;;;;;;8.90;100.00;100554.13;4993649;28;20036;-71
2022/12/22 14:21:25;;;;;;;0.10;0.10;;;;;;;8.78;100.00;100560.41;4995190;28;20026;-72
2022/12/22 14:23:51;;;;;;;0.10;0.10;;;;;;;8.73;100.00;100549.19;4998759;28;20060;-72
2022/12/22 14:26:19;;;;;;;0.10;0.10;;;;;;;8.91;100.00;100557.66;4996770;28;20037;-71
2022/12/22 14:28:52;;;;;;;0.10;0.10;;;;;;;8.81;100.00;100565.53;4996500;28;20418;-71
2022/12/22 14:31:17;;;;;;;0.10;0.10;;;;;;;8.84;100.00;100570.66;5011351;28;20772;-71
2022/12/22 14:34:04;;;;;;;0.10;0.10;;;;;;;8.99;100.00;100549.91;4978684;28;20030;-71
2022/12/22 14:36:35;;;;;;;0.10;0.10;;;;;;;8.74;100.00;100543.72;4993443;28;20032;-71
2022/12/22 14:39:08;;;;;;;0.10;0.10;;;;;;;8.70;100.00;100544.94;4996996;28;20493;-71
2022/12/22 14:41:50;;;;;;;0.00;0.00;;;;;;;8.58;100.00;100541.34;4994562;28;20404;-71
2022/12/22 14:44:21;;;;;;;0.10;0.10;;;;;;;8.73;100.00;100534.00;4992148;28;20084;-71
2022/12/22 14:47:27;;;;;;;0.03;0.03;;;;;;;8.56;100.00;100535.25;4999481;28;20563;-71
2022/12/22 14:49:57;;;;;;;0.10;0.10;;;;;;;8.41;100.00;100526.50;4997814;28;20053;-72
2022/12/22 14:52:55;;;;;;;0.00;0.00;;;;;;;8.47;100.00;100525.19;4996488;28;20033;-71
2022/12/22 14:55:37;;;;;;;0.00;0.00;;;;;;;8.44;100.00;100520.94;4996561;28;20069;-71
2022/12/22 14:58:14;;;;;;;0.10;0.10;;;;;;;8.42;100.00;100525.53;4997782;28;20033;-72
2022/12/22 15:00:43;;;;;;;0.10;0.10;;;;;;;8.03;100.00;100495.38;4977763;28;20541;-72
2022/12/22 15:03:27;;;;;;;0.10;0.10;;;;;;;7.93;100.00;100517.47;4983762;28;20052;-72
2022/12/22 15:05:52;;;;;;;0.10;0.10;;;;;;;7.84;100.00;100514.56;5003300;28;20092;-71
2022/12/22 15:08:42;;;;;;;0.10;0.10;;;;;;;7.96;100.00;100527.06;4984085;28;20467;-71
2022/12/22 15:11:13;;;;;;;0.10;0.10;;;;;;;7.91;100.00;100530.09;4982258;28;20144;-71
2022/12/22 15:13:39;;;;;;;0.10;0.10;;;;;;;7.84;100.00;100509.22;5017899;28;20465;-72
2022/12/22 15:16:04;;;;;;;0.10;0.10;;;;;;;7.76;100.00;100494.63;5002882;28;20033;-72
2022/12/22 15:18:31;;;;;;;0.10;0.10;;;;;;;7.82;100.00;100504.00;4982154;28;20053;-72